Time;durP1;ratioP1;P1;durP2;ratioP2;P2;SDS_P1;SDS_P2;PMS_P1;PMS_P2;Temp;Humidity;BMP_temperature;BMP_pressure;BME280_temperature;BME280_humidity;BME280_pressure;Samples;Min_cycle;Max_cycle;Signal;HPM_P1;HPM_P2
2024/02/13 00:01:15;;;;;;;9.90;3.70;;;7.40;99.90;;;;;;5011310;28;20179;-69
2024/02/13 00:03:40;;;;;;;3.97;2.37;;;7.20;99.90;;;;;;5014899;28;20532;-70
2024/02/13 00:06:06;;;;;;;6.40;3.20;;;7.20;99.90;;;;;;5014998;28;20561;-70
2024/02/13 00:08:31;;;;;;;6.00;2.60;;;7.20;99.90;;;;;;5013771;28;20174;-69
2024/02/13 00:10:57;;;;;;;6.00;2.87;;;7.20;99.90;;;;;;4999119;28;20257;-70
2024/02/13 00:13:23;;;;;;;4.00;2.50;;;7.20;99.90;;;;;;4996268;28;20170;-69
2024/02/13 00:15:49;;;;;;;5.93;2.80;;;7.20;99.90;;;;;;4995617;28;20658;-70
2024/02/13 00:18:15;;;;;;;6.80;2.70;;;7.20;99.90;;;;;;4995524;28;20411;-69
2024/02/13 00:20:42;;;;;;;5.60;3.07;;;7.30;99.90;;;;;;5010938;28;20396;-69
2024/02/13 00:23:07;;;;;;;6.33;2.93;;;7.30;99.90;;;;;;5013850;28;20191;-69
2024/02/13 00:25:33;;;;;;;3.87;2.63;;;7.40;99.90;;;;;;5015353;28;20483;-70
2024/02/13 00:27:59;;;;;;;7.10;2.70;;;7.40;99.90;;;;;;5015677;28;20242;-69
2024/02/13 00:30:24;;;;;;;8.90;2.53;;;7.30;99.90;;;;;;5014763;28;20167;-69
2024/02/13 00:32:50;;;;;;;6.23;2.53;;;7.30;99.90;;;;;;5014668;28;20594;-70
2024/02/13 00:35:16;;;;;;;4.60;2.30;;;7.40;99.90;;;;;;5015140;28;20202;-69
2024/02/13 00:37:41;;;;;;;5.43;2.50;;;7.40;99.90;;;;;;5005456;28;20184;-69
2024/02/13 00:40:09;;;;;;;4.50;2.30;;;7.50;99.90;;;;;;5005919;28;20182;-69
2024/02/13 00:42:38;;;;;;;3.83;2.27;;;7.60;99.90;;;;;;5014585;28;20199;-69
2024/02/13 00:45:07;;;;;;;4.97;2.50;;;7.70;99.90;;;;;;5013271;28;20430;-69
2024/02/13 00:47:33;;;;;;;4.33;2.50;;;7.70;99.90;;;;;;5014371;28;20498;-69
2024/02/13 00:49:59;;;;;;;6.17;2.30;;;7.70;99.90;;;;;;5013468;28;20414;-69
2024/02/13 00:52:28;;;;;;;3.87;2.37;;;7.80;99.90;;;;;;5014405;28;20421;-70
2024/02/13 00:54:57;;;;;;;3.63;1.97;;;7.90;99.90;;;;;;5014074;28;20427;-69
2024/02/13 00:57:24;;;;;;;6.50;2.20;;;7.80;99.90;;;;;;5012669;28;20924;-69
2024/02/13 00:59:50;;;;;;;6.43;2.57;;;7.90;99.90;;;;;;5014082;28;20469;-69
2024/02/13 01:02:19;;;;;;;4.50;2.13;;;7.90;99.90;;;;;;5014043;28;20524;-69
2024/02/13 01:04:44;;;;;;;7.00;2.60;;;8.00;99.90;;;;;;5013615;28;20477;-69
2024/02/13 01:07:10;;;;;;;10.30;2.43;;;8.20;99.90;;;;;;5012694;28;20483;-68
2024/02/13 01:09:36;;;;;;;6.40;2.43;;;8.10;99.90;;;;;;5013931;28;20177;-69
2024/02/13 01:12:03;;;;;;;3.03;2.30;;;8.00;99.90;;;;;;5013959;28;20923;-69
2024/02/13 01:14:30;;;;;;;3.13;2.33;;;8.10;99.90;;;;;;5013392;28;20238;-69
2024/02/13 01:16:56;;;;;;;5.53;2.53;;;8.10;99.90;;;;;;4994410;28;20422;-68
2024/02/13 01:19:22;;;;;;;5.50;2.20;;;8.20;99.90;;;;;;4994845;28;20910;-69
2024/02/13 01:21:48;;;;;;;5.70;2.10;;;8.20;99.90;;;;;;4995223;28;20791;-68
2024/02/13 01:24:15;;;;;;;4.93;2.20;;;8.10;99.90;;;;;;4999592;28;20449;-68
2024/02/13 01:26:43;;;;;;;4.37;2.63;;;8.20;99.90;;;;;;5014064;28;20435;-69
2024/02/13 01:29:10;;;;;;;5.80;2.40;;;8.20;99.90;;;;;;5012373;28;20522;-70
2024/02/13 01:31:36;;;;;;;5.23;2.30;;;8.40;99.90;;;;;;5013939;28;20413;-68
2024/02/13 01:34:01;;;;;;;4.70;2.50;;;8.60;99.90;;;;;;5012362;28;20475;-68
2024/02/13 01:36:27;;;;;;;3.30;2.47;;;8.70;99.90;;;;;;5013753;28;20656;-69
2024/02/13 01:38:54;;;;;;;6.40;2.67;;;8.80;99.90;;;;;;5014188;28;20650;-69
2024/02/13 01:41:20;;;;;;;4.57;2.50;;;8.70;99.90;;;;;;5013777;28;20468;-69
2024/02/13 01:43:46;;;;;;;8.07;2.50;;;8.70;99.90;;;;;;5013829;28;20450;-68
2024/02/13 01:46:12;;;;;;;2.53;1.70;;;8.60;99.90;;;;;;5012614;28;20194;-69
2024/02/13 01:48:38;;;;;;;3.73;2.27;;;8.60;99.90;;;;;;4993966;28;20661;-69
2024/02/13 01:51:06;;;;;;;4.07;2.40;;;8.70;99.90;;;;;;4994279;28;20409;-70
2024/02/13 01:53:35;;;;;;;5.13;2.13;;;8.80;99.90;;;;;;4994991;28;20518;-69
2024/02/13 01:56:02;;;;;;;5.40;2.73;;;8.80;99.90;;;;;;5006938;28;20949;-69
2024/02/13 01:58:30;;;;;;;8.40;2.70;;;8.80;99.90;;;;;;5016579;28;20403;-69
2024/02/13 02:01:00;;;;;;;4.50;2.17;;;8.70;99.90;;;;;;5016758;28;20412;-68
2024/02/13 02:03:31;;;;;;;4.00;2.60;;;8.80;99.90;;;;;;5013478;28;20508;-69
2024/02/13 02:06:02;;;;;;;5.53;2.47;;;8.80;99.90;;;;;;5004165;28;20459;-69
2024/02/13 02:08:28;;;;;;;3.53;2.37;;;8.70;99.90;;;;;;4996883;28;20392;-68
2024/02/13 02:10:57;;;;;;;3.40;2.23;;;8.80;99.90;;;;;;5001400;28;20454;-68
2024/02/13 02:13:25;;;;;;;5.63;2.50;;;8.60;99.90;;;;;;5016415;28;20172;-70
2024/02/13 02:15:51;;;;;;;7.30;3.13;;;8.70;99.90;;;;;;5016487;28;20461;-70
2024/02/13 02:18:17;;;;;;;6.03;2.70;;;8.70;99.90;;;;;;5016425;28;20416;-70
2024/02/13 02:20:43;;;;;;;6.10;2.90;;;8.60;99.90;;;;;;5015215;28;20217;-70
2024/02/13 02:23:08;;;;;;;4.13;2.30;;;8.60;99.90;;;;;;5014628;28;20447;-69
2024/02/13 02:25:34;;;;;;;5.67;2.63;;;8.60;99.90;;;;;;5016435;28;20666;-70
2024/02/13 02:27:59;;;;;;;4.50;2.40;;;8.60;99.90;;;;;;5017028;28;20167;-69
2024/02/13 02:30:25;;;;;;;5.27;2.90;;;8.60;99.90;;;;;;5016768;28;20184;-69
2024/02/13 02:32:51;;;;;;;9.13;2.67;;;8.60;99.90;;;;;;5016492;28;20259;-69
2024/02/13 02:35:17;;;;;;;3.63;2.43;;;8.40;99.90;;;;;;5014754;28;20211;-69
2024/02/13 02:37:47;;;;;;;5.07;2.27;;;8.30;99.90;;;;;;5015962;28;20593;-70
2024/02/13 02:40:14;;;;;;;7.63;2.97;;;8.30;99.90;;;;;;5017700;28;20164;-69
2024/02/13 02:42:40;;;;;;;5.43;2.23;;;8.20;99.90;;;;;;5017691;28;20459;-68
2024/02/13 02:45:06;;;;;;;5.93;2.50;;;8.10;99.90;;;;;;5016896;28;20435;-68
2024/02/13 02:47:34;;;;;;;4.60;2.17;;;7.90;99.90;;;;;;5014848;28;20174;-69
2024/02/13 02:50:00;;;;;;;2.80;2.40;;;8.00;99.90;;;;;;5016254;28;20482;-69
2024/02/13 02:52:25;;;;;;;7.13;2.30;;;7.90;99.90;;;;;;5016022;28;20420;-69
2024/02/13 02:54:51;;;;;;;5.33;2.13;;;7.80;99.90;;;;;;5014764;28;20214;-69
2024/02/13 02:57:17;;;;;;;4.90;2.53;;;7.70;99.90;;;;;;5016120;28;20184;-69
2024/02/13 02:59:45;;;;;;;5.50;1.97;;;7.60;99.90;;;;;;5009069;28;20183;-69
2024/02/13 03:02:13;;;;;;;6.73;2.00;;;7.60;99.90;;;;;;5012348;28;20200;-66
2024/02/13 03:04:40;;;;;;;5.20;2.60;;;7.60;99.90;;;;;;5029769;28;20420;-68
2024/02/13 03:07:08;;;;;;;3.07;2.40;;;7.50;99.90;;;;;;5029810;28;20450;-67
2024/02/13 03:09:33;;;;;;;5.37;2.50;;;7.50;99.90;;;;;;5017283;28;20463;-68
2024/02/13 03:12:00;;;;;;;6.67;2.53;;;7.40;99.90;;;;;;5015469;28;20900;-69
2024/02/13 03:14:26;;;;;;;6.23;2.87;;;7.50;99.90;;;;;;5015678;28;20568;-69
2024/02/13 03:16:51;;;;;;;4.60;2.57;;;7.30;99.90;;;;;;5015230;28;20437;-68
2024/02/13 03:19:17;;;;;;;3.37;2.00;;;7.20;99.90;;;;;;5013830;28;20257;-67
2024/02/13 03:21:43;;;;;;;4.30;2.57;;;7.20;99.90;;;;;;5014427;28;20181;-67
2024/02/13 03:24:08;;;;;;;6.20;2.50;;;7.10;99.90;;;;;;4996141;28;20182;-69
2024/02/13 03:26:34;;;;;;;4.57;2.60;;;7.20;99.90;;;;;;5011532;28;20194;-69
2024/02/13 03:29:01;;;;;;;5.20;2.00;;;7.30;99.90;;;;;;5015349;28;20190;-69
2024/02/13 03:31:27;;;;;;;4.43;2.40;;;7.30;99.90;;;;;;5013369;28;20425;-69
2024/02/13 03:33:53;;;;;;;4.13;2.47;;;7.30;99.90;;;;;;5014918;28;20414;-69
2024/02/13 03:36:19;;;;;;;5.50;2.30;;;7.30;99.90;;;;;;5014910;28;20732;-69
2024/02/13 03:38:48;;;;;;;4.47;2.50;;;7.30;99.90;;;;;;5015025;28;20263;-69
2024/02/13 03:41:13;;;;;;;5.27;2.17;;;7.30;99.90;;;;;;5014746;28;20464;-68
2024/02/13 03:43:43;;;;;;;3.50;2.10;;;7.40;99.90;;;;;;5010987;28;20867;-69
2024/02/13 03:46:09;;;;;;;4.90;2.20;;;7.30;99.90;;;;;;5007959;28;20294;-69
2024/02/13 03:48:35;;;;;;;4.27;2.50;;;7.30;99.90;;;;;;5015313;28;20452;-69
2024/02/13 03:51:01;;;;;;;3.97;2.50;;;7.30;99.90;;;;;;5014853;28;20444;-69
2024/02/13 03:53:26;;;;;;;5.17;2.30;;;7.30;99.90;;;;;;5017323;28;20441;-69
2024/02/13 03:55:52;;;;;;;3.00;2.23;;;7.20;99.90;;;;;;5009363;28;20297;-68
2024/02/13 03:58:18;;;;;;;2.30;1.97;;;7.20;99.90;;;;;;4995079;28;20171;-70
2024/02/13 04:00:44;;;;;;;4.43;2.30;;;7.20;99.90;;;;;;5002452;28;20261;-70
2024/02/13 04:03:11;;;;;;;3.57;1.80;;;7.30;99.90;;;;;;4995885;28;20195;-69
2024/02/13 04:05:38;;;;;;;7.30;2.17;;;7.30;99.90;;;;;;5003400;28;20443;-69
2024/02/13 04:08:06;;;;;;;5.77;1.70;;;7.30;99.90;;;;;;5015410;28;20411;-68
2024/02/13 04:10:32;;;;;;;2.90;1.40;;;7.30;99.90;;;;;;5014911;28;20417;-67
2024/02/13 04:12:58;;;;;;;4.47;1.77;;;7.30;99.90;;;;;;5015084;28;20457;-68
2024/02/13 04:15:23;;;;;;;5.47;2.20;;;7.30;99.90;;;;;;5011703;28;20445;-69
2024/02/13 04:17:50;;;;;;;3.20;1.60;;;7.30;99.90;;;;;;5014545;28;20171;-70
2024/02/13 04:20:16;;;;;;;2.43;1.53;;;7.40;99.90;;;;;;5014117;28;20186;-69
2024/02/13 04:22:42;;;;;;;2.87;2.00;;;7.50;99.90;;;;;;5014250;28;20456;-68
2024/02/13 04:25:09;;;;;;;1.83;1.50;;;7.60;99.90;;;;;;5012652;28;20425;-68
2024/02/13 04:27:36;;;;;;;3.67;2.07;;;7.60;99.90;;;;;;5014099;28;20414;-70
2024/02/13 04:30:03;;;;;;;3.20;2.03;;;7.70;99.90;;;;;;5014917;28;20419;-69
2024/02/13 04:32:29;;;;;;;6.50;2.20;;;7.70;99.90;;;;;;5013143;28;20549;-70
2024/02/13 04:34:54;;;;;;;3.60;1.90;;;7.60;99.90;;;;;;5013982;28;20441;-69
2024/02/13 04:37:23;;;;;;;2.33;1.60;;;7.60;99.90;;;;;;5013497;28;20180;-70
2024/02/13 04:39:48;;;;;;;4.10;1.90;;;7.50;99.90;;;;;;5014077;28;20169;-70
2024/02/13 04:42:15;;;;;;;5.13;1.93;;;7.50;99.90;;;;;;5006961;28;20459;-70
2024/02/13 04:44:41;;;;;;;5.37;2.37;;;7.60;99.90;;;;;;4994124;28;20168;-69
2024/02/13 04:47:06;;;;;;;6.23;2.23;;;7.70;99.90;;;;;;5012338;28;20501;-70
2024/02/13 04:49:32;;;;;;;5.17;2.17;;;7.70;99.90;;;;;;5013907;28;20410;-70
2024/02/13 04:51:58;;;;;;;3.43;1.67;;;7.50;99.90;;;;;;5012389;28;20181;-70
2024/02/13 04:54:24;;;;;;;2.40;1.63;;;7.60;99.90;;;;;;5013598;28;20158;-69
2024/02/13 04:56:50;;;;;;;4.27;1.60;;;7.60;99.90;;;;;;5012224;28;20766;-69
2024/02/13 04:59:18;;;;;;;4.23;2.13;;;7.70;99.90;;;;;;5013904;28;20409;-69
2024/02/13 05:01:45;;;;;;;3.67;2.07;;;7.80;99.90;;;;;;5009153;28;20520;-69
2024/02/13 05:09:24;;;;;;;2.93;2.20;;;7.70;99.90;;;;;;4993552;28;20387;-70
2024/02/13 05:11:50;;;;;;;5.20;2.73;;;7.60;99.90;;;;;;4993638;28;20395;-69
2024/02/13 05:14:15;;;;;;;4.30;2.00;;;7.70;99.90;;;;;;5025032;28;20188;-68
2024/02/13 05:16:43;;;;;;;4.13;2.37;;;7.90;99.90;;;;;;4992578;28;20278;-69
2024/02/13 05:19:09;;;;;;;5.27;2.70;;;8.00;99.90;;;;;;4993532;28;20778;-69
2024/02/13 05:21:35;;;;;;;7.53;1.77;;;7.90;99.90;;;;;;4993263;28;20408;-69
2024/02/13 05:24:05;;;;;;;4.20;2.10;;;7.90;99.90;;;;;;4992451;28;20575;-70
2024/02/13 05:26:31;;;;;;;3.70;2.13;;;8.00;99.90;;;;;;4987809;28;20462;-70
2024/02/13 05:28:57;;;;;;;3.60;1.87;;;7.90;99.90;;;;;;4993178;28;20403;-70
2024/02/13 05:31:23;;;;;;;4.17;2.60;;;7.80;99.90;;;;;;4992488;28;20419;-69
2024/02/13 05:33:49;;;;;;;7.77;2.83;;;7.90;99.90;;;;;;4991455;28;20247;-69
2024/02/13 05:36:16;;;;;;;4.30;2.63;;;7.80;99.90;;;;;;4989067;28;20475;-70
2024/02/13 05:38:47;;;;;;;2.20;1.90;;;7.70;99.90;;;;;;4996911;28;20787;-69
2024/02/13 05:41:13;;;;;;;3.80;1.77;;;7.60;99.90;;;;;;4997219;28;20399;-69
2024/02/13 05:43:42;;;;;;;3.27;2.10;;;7.70;99.90;;;;;;4995080;28;20804;-69
2024/02/13 05:46:08;;;;;;;6.63;2.10;;;7.70;99.90;;;;;;4996424;28;20669;-69
2024/02/13 05:48:35;;;;;;;3.23;1.77;;;7.70;99.90;;;;;;4996986;28;20402;-70
2024/02/13 05:51:04;;;;;;;3.10;2.10;;;7.70;99.90;;;;;;4993968;28;20931;-70
2024/02/13 05:53:30;;;;;;;5.13;2.00;;;7.60;99.90;;;;;;4996451;28;20493;-70
2024/02/13 05:55:55;;;;;;;2.47;2.20;;;7.60;99.90;;;;;;4996412;28;20465;-69
2024/02/13 05:58:27;;;;;;;4.60;2.43;;;7.40;99.90;;;;;;4996417;28;20177;-70
2024/02/13 06:00:57;;;;;;;2.73;2.00;;;7.30;99.90;;;;;;4986962;28;20247;-69
2024/02/13 06:03:24;;;;;;;3.20;2.27;;;7.40;99.90;;;;;;4996500;28;20824;-69
2024/02/13 06:05:49;;;;;;;5.20;2.47;;;7.50;99.90;;;;;;4996360;28;20450;-70
2024/02/13 06:08:15;;;;;;;3.40;2.07;;;7.70;99.90;;;;;;4996618;28;20729;-69
2024/02/13 06:10:41;;;;;;;3.50;2.53;;;7.80;99.90;;;;;;4995199;28;20505;-70
2024/02/13 06:13:06;;;;;;;3.50;2.53;;;7.80;99.90;;;;;;4983166;28;20225;-70
2024/02/13 06:15:33;;;;;;;4.70;2.27;;;7.80;99.90;;;;;;4982092;28;20189;-70
2024/02/13 06:17:58;;;;;;;4.80;2.03;;;7.90;99.90;;;;;;4996534;28;20188;-70
2024/02/13 06:20:24;;;;;;;4.63;2.13;;;7.90;99.90;;;;;;4983403;28;20418;-70
2024/02/13 06:22:49;;;;;;;4.00;2.40;;;8.00;99.90;;;;;;4977135;28;20197;-70
2024/02/13 06:25:15;;;;;;;4.43;1.97;;;8.00;99.90;;;;;;4980432;28;20197;-70
2024/02/13 06:27:40;;;;;;;5.67;2.37;;;8.10;99.90;;;;;;4996457;28;20251;-70
2024/02/13 06:30:07;;;;;;;4.97;2.60;;;8.20;99.90;;;;;;4994606;28;20188;-70
2024/02/13 06:32:32;;;;;;;3.40;2.00;;;8.20;99.90;;;;;;4993892;28;20199;-70
2024/02/13 06:34:58;;;;;;;7.20;2.50;;;8.30;99.90;;;;;;4995747;28;20910;-71
2024/02/13 06:37:24;;;;;;;3.40;2.20;;;8.30;99.90;;;;;;4994572;28;20733;-71
2024/02/13 06:39:50;;;;;;;4.50;2.60;;;8.20;99.90;;;;;;4979577;28;20183;-70
2024/02/13 06:42:16;;;;;;;6.23;3.27;;;8.10;99.90;;;;;;4977210;28;20204;-70
2024/02/13 06:44:43;;;;;;;9.00;2.60;;;8.10;99.90;;;;;;4977082;28;20503;-70
2024/02/13 06:47:10;;;;;;;5.20;2.57;;;8.20;99.90;;;;;;4989101;28;20436;-70
2024/02/13 06:49:36;;;;;;;5.60;3.33;;;8.10;99.90;;;;;;4996119;28;20754;-70
2024/02/13 06:52:03;;;;;;;3.13;2.47;;;8.20;99.90;;;;;;4996126;28;20411;-72
2024/02/13 06:54:30;;;;;;;6.43;2.47;;;8.10;99.90;;;;;;4996204;28;20492;-71
2024/02/13 06:56:59;;;;;;;5.67;2.37;;;8.20;99.90;;;;;;4988971;28;20795;-69
2024/02/13 06:59:27;;;;;;;6.07;3.50;;;8.30;99.90;;;;;;4976769;28;20419;-69
2024/02/13 07:01:53;;;;;;;3.73;2.73;;;8.30;99.90;;;;;;4979107;28;20417;-70
2024/02/13 07:04:18;;;;;;;7.73;3.20;;;8.40;99.90;;;;;;4977252;28;20408;-70
2024/02/13 07:06:44;;;;;;;6.87;2.40;;;8.50;99.90;;;;;;4988541;28;20458;-70
2024/02/13 07:09:10;;;;;;;4.87;2.40;;;8.40;99.90;;;;;;4995247;28;20172;-70
2024/02/13 07:11:36;;;;;;;10.23;2.80;;;8.50;99.90;;;;;;4995528;28;20234;-70
2024/02/13 07:14:02;;;;;;;3.00;2.10;;;8.60;99.90;;;;;;4995394;28;20415;-70
2024/02/13 07:16:27;;;;;;;3.07;2.77;;;8.40;99.90;;;;;;4994880;28;20790;-71
2024/02/13 07:18:53;;;;;;;3.87;2.33;;;8.50;99.90;;;;;;4993451;28;20177;-70
2024/02/13 07:21:19;;;;;;;3.00;1.87;;;8.60;99.90;;;;;;4995376;28;20173;-70
2024/02/13 07:23:46;;;;;;;5.30;2.30;;;8.80;99.90;;;;;;4995204;28;20205;-70
2024/02/13 07:26:11;;;;;;;4.57;2.30;;;8.80;99.90;;;;;;4995067;28;20454;-70
2024/02/13 07:28:38;;;;;;;6.60;2.97;;;8.80;99.90;;;;;;4995138;28;20460;-69
2024/02/13 07:31:08;;;;;;;5.20;2.33;;;8.80;99.90;;;;;;4983619;28;20197;-70
2024/02/13 07:33:34;;;;;;;7.47;2.70;;;8.90;99.90;;;;;;4975225;28;20425;-70
2024/02/13 07:36:00;;;;;;;7.77;3.00;;;8.90;99.90;;;;;;4983077;28;20470;-70
2024/02/13 07:38:26;;;;;;;4.53;2.70;;;9.00;99.90;;;;;;4994891;28;20668;-70
2024/02/13 07:40:51;;;;;;;4.87;2.67;;;9.00;99.90;;;;;;4994804;28;20443;-70
2024/02/13 07:43:17;;;;;;;7.40;2.90;;;9.10;99.90;;;;;;4993056;28;20965;-70
2024/02/13 07:45:43;;;;;;;5.63;2.90;;;9.30;99.90;;;;;;4994080;28;20205;-69
2024/02/13 07:48:11;;;;;;;5.00;2.40;;;9.40;99.90;;;;;;4994532;28;20170;-70
2024/02/13 07:50:38;;;;;;;8.33;2.30;;;9.40;99.90;;;;;;4994535;28;20774;-70
2024/02/13 07:53:07;;;;;;;6.37;2.93;;;9.30;99.90;;;;;;4994435;28;20932;-70
2024/02/13 07:55:36;;;;;;;7.80;3.27;;;9.20;99.90;;;;;;4992180;28;20428;-70
2024/02/13 07:58:03;;;;;;;5.53;3.00;;;9.00;99.90;;;;;;4994216;28;20418;-70
2024/02/13 08:00:29;;;;;;;8.83;3.30;;;8.90;99.90;;;;;;4991014;28;20488;-71
2024/02/13 08:02:55;;;;;;;10.03;3.90;;;8.90;99.90;;;;;;4994435;28;20455;-69
2024/02/13 08:05:20;;;;;;;8.20;3.87;;;8.90;99.90;;;;;;4983837;28;20526;-69
2024/02/13 08:07:46;;;;;;;5.57;3.33;;;8.90;99.90;;;;;;4975915;28;20272;-68
2024/02/13 08:10:13;;;;;;;6.43;3.07;;;8.80;99.90;;;;;;4974904;28;20260;-69
2024/02/13 08:12:39;;;;;;;5.33;3.37;;;8.80;99.90;;;;;;4974868;28;20175;-70
2024/02/13 08:15:06;;;;;;;7.17;3.40;;;8.90;99.90;;;;;;4983382;28;20964;-70
2024/02/13 08:17:32;;;;;;;6.37;3.10;;;9.00;99.90;;;;;;4984158;28;20189;-70
2024/02/13 08:19:59;;;;;;;3.77;2.47;;;9.00;99.90;;;;;;4992479;28;20484;-69
2024/02/13 08:22:24;;;;;;;4.90;3.00;;;9.00;99.90;;;;;;4993777;28;20196;-69
2024/02/13 08:24:50;;;;;;;3.80;2.63;;;9.10;99.90;;;;;;4993457;28;20408;-68
2024/02/13 08:27:18;;;;;;;5.93;2.77;;;9.10;99.90;;;;;;4994058;28;20173;-69
2024/02/13 08:29:44;;;;;;;4.23;1.97;;;9.00;99.90;;;;;;4993595;28;20712;-69
2024/02/13 08:32:09;;;;;;;5.83;2.90;;;8.90;99.90;;;;;;4994286;28;20774;-69
2024/02/13 08:34:35;;;;;;;5.80;2.57;;;8.80;99.90;;;;;;4993968;28;20403;-69
2024/02/13 08:37:00;;;;;;;5.80;2.63;;;8.90;99.90;;;;;;4989779;28;20207;-69
2024/02/13 08:39:26;;;;;;;5.50;2.10;;;8.90;99.90;;;;;;4993921;28;20191;-69
2024/02/13 08:41:52;;;;;;;4.73;2.30;;;8.80;99.90;;;;;;4991690;28;20180;-69
2024/02/13 08:44:18;;;;;;;9.53;3.10;;;8.80;99.90;;;;;;4993526;28;20223;-69
2024/02/13 08:46:45;;;;;;;5.90;3.13;;;8.90;99.90;;;;;;4993450;28;20208;-71
2024/02/13 08:49:11;;;;;;;7.20;2.40;;;9.10;99.90;;;;;;4993386;28;20957;-68
2024/02/13 08:51:37;;;;;;;5.00;2.57;;;9.10;99.90;;;;;;4992599;28;20415;-69
2024/02/13 08:54:02;;;;;;;6.00;2.73;;;9.30;99.90;;;;;;4992447;28;20494;-70
2024/02/13 08:56:28;;;;;;;4.90;3.00;;;9.30;99.90;;;;;;4988883;28;20203;-69
2024/02/13 08:58:54;;;;;;;4.17;2.87;;;9.40;99.90;;;;;;4991917;28;20617;-69
2024/02/13 09:01:20;;;;;;;5.17;3.47;;;9.60;99.90;;;;;;4984723;28;20249;-70
2024/02/13 09:03:47;;;;;;;8.93;5.07;;;9.60;99.90;;;;;;4989510;28;20873;-68
2024/02/13 09:06:13;;;;;;;7.03;2.60;;;9.50;99.90;;;;;;4983510;28;20896;-69
2024/02/13 09:08:41;;;;;;;3.30;2.63;;;9.30;99.90;;;;;;4997436;28;20408;-69
2024/02/13 09:11:12;;;;;;;6.03;1.90;;;9.70;99.90;;;;;;4998079;28;20403;-70
2024/02/13 09:13:38;;;;;;;6.07;2.90;;;9.80;99.90;;;;;;4996083;28;20926;-70
2024/02/13 09:16:05;;;;;;;3.43;1.90;;;9.70;99.90;;;;;;4996475;28;20443;-70
2024/02/13 09:18:31;;;;;;;4.33;2.47;;;9.90;99.90;;;;;;4997090;28;20414;-69
2024/02/13 09:20:58;;;;;;;7.00;1.90;;;10.10;99.90;;;;;;4982958;28;20515;-70
2024/02/13 09:23:27;;;;;;;4.13;2.30;;;10.00;99.90;;;;;;4977613;28;20267;-69
2024/02/13 09:25:55;;;;;;;4.20;1.90;;;10.10;99.90;;;;;;4992001;28;20835;-69
2024/02/13 09:28:21;;;;;;;3.20;1.40;;;9.80;99.90;;;;;;4979171;28;20752;-69
2024/02/13 09:30:47;;;;;;;2.47;2.10;;;10.00;99.90;;;;;;4977534;28;20549;-69
2024/02/13 09:33:14;;;;;;;3.87;1.80;;;10.20;99.90;;;;;;4977693;28;20965;-69
2024/02/13 09:35:39;;;;;;;5.93;2.90;;;10.30;99.90;;;;;;4989820;28;20462;-70
2024/02/13 09:38:06;;;;;;;7.23;2.50;;;10.30;99.90;;;;;;4997224;28;20411;-69
2024/02/13 09:40:32;;;;;;;3.00;1.57;;;10.40;99.90;;;;;;4996881;28;20584;-71
2024/02/13 09:42:58;;;;;;;3.33;2.50;;;10.00;99.90;;;;;;4995587;28;20446;-69
2024/02/13 09:45:26;;;;;;;2.80;1.90;;;10.00;99.90;;;;;;4996673;28;20243;-69
2024/02/13 09:47:52;;;;;;;4.33;2.57;;;10.10;99.90;;;;;;4993688;28;20195;-69
2024/02/13 09:50:17;;;;;;;2.67;1.93;;;10.00;99.90;;;;;;4978223;28;20857;-68
2024/02/13 09:52:49;;;;;;;1.93;1.50;;;10.10;99.90;;;;;;4977361;28;20181;-69
2024/02/13 09:55:15;;;;;;;4.73;2.03;;;10.40;99.90;;;;;;4985129;28;20227;-70
2024/02/13 09:57:41;;;;;;;4.63;1.80;;;10.70;99.90;;;;;;4980775;28;20515;-69
2024/02/13 10:00:08;;;;;;;3.57;1.77;;;10.80;99.90;;;;;;4977352;28;20177;-69
2024/02/13 10:02:40;;;;;;;3.67;1.87;;;10.90;99.90;;;;;;4976991;28;20471;-69
2024/02/13 10:05:10;;;;;;;3.60;1.40;;;11.10;99.90;;;;;;4983840;28;20457;-69
2024/02/13 10:07:40;;;;;;;3.63;2.10;;;11.10;99.90;;;;;;4977300;28;20412;-69
2024/02/13 10:10:15;;;;;;;2.83;2.20;;;11.30;99.90;;;;;;4979607;28;20415;-69
2024/02/13 10:12:59;;;;;;;2.03;1.67;;;11.30;99.90;;;;;;4976805;28;20407;-69
2024/02/13 10:15:45;;;;;;;4.60;2.20;;;11.40;99.90;;;;;;4978135;28;20465;-68
2024/02/13 10:18:13;;;;;;;3.67;1.77;;;11.60;99.90;;;;;;4977527;28;20465;-69
2024/02/13 10:20:40;;;;;;;3.37;1.67;;;11.70;99.90;;;;;;4986198;28;20429;-69
2024/02/13 10:23:06;;;;;;;2.43;1.60;;;11.40;99.90;;;;;;4995919;28;20488;-70
2024/02/13 10:25:33;;;;;;;3.23;1.77;;;11.40;99.90;;;;;;4994848;28;20469;-70
2024/02/13 10:28:03;;;;;;;2.93;1.60;;;11.60;99.90;;;;;;4996254;28;20411;-70
2024/02/13 10:30:29;;;;;;;4.10;1.90;;;11.40;99.90;;;;;;4994337;28;20753;-70
2024/02/13 10:33:06;;;;;;;2.03;1.30;;;11.20;99.90;;;;;;4982434;28;20420;-70
2024/02/13 10:35:32;;;;;;;3.53;1.53;;;11.40;99.90;;;;;;4975347;28;21013;-69
2024/02/13 10:37:58;;;;;;;4.57;1.73;;;11.60;99.90;;;;;;4977733;28;20435;-70
2024/02/13 10:40:30;;;;;;;2.27;1.77;;;11.40;99.90;;;;;;4985676;28;20424;-70
2024/02/13 10:42:57;;;;;;;3.87;1.80;;;11.50;99.90;;;;;;4996255;28;20453;-70
2024/02/13 10:45:29;;;;;;;4.90;1.57;;;11.40;99.90;;;;;;4995796;28;20424;-69
2024/02/13 10:48:13;;;;;;;3.27;2.03;;;11.10;99.90;;;;;;4995525;28;20899;-70
2024/02/13 10:50:40;;;;;;;2.57;1.53;;;10.90;99.90;;;;;;4994854;28;20404;-70
2024/02/13 10:53:06;;;;;;;4.37;2.00;;;10.90;99.90;;;;;;4992176;28;20424;-70
2024/02/13 10:55:33;;;;;;;2.47;1.40;;;10.90;99.90;;;;;;4976221;28;20479;-70
2024/02/13 10:58:00;;;;;;;1.37;1.13;;;10.90;99.90;;;;;;4976354;28;20842;-70
2024/02/13 11:00:27;;;;;;;3.47;1.37;;;10.70;99.90;;;;;;4976477;28;20418;-69
2024/02/13 11:02:55;;;;;;;2.13;1.53;;;10.80;99.90;;;;;;4975843;28;20454;-68
2024/02/13 11:05:25;;;;;;;4.20;2.00;;;11.00;99.90;;;;;;5009246;23;20470;-71
2024/02/13 11:07:52;;;;;;;3.70;1.80;;;11.10;99.90;;;;;;4970596;28;20933;-70
2024/02/13 11:10:18;;;;;;;2.17;1.50;;;11.50;99.90;;;;;;4975251;28;20408;-70
2024/02/13 11:12:45;;;;;;;3.00;1.60;;;11.80;99.90;;;;;;4975584;28;20422;-70
2024/02/13 11:15:17;;;;;;;5.67;1.97;;;11.50;99.90;;;;;;4975242;28;20468;-71
2024/02/13 11:17:47;;;;;;;3.03;1.40;;;11.60;99.90;;;;;;4971506;28;20497;-71
2024/02/13 11:20:23;;;;;;;2.50;1.03;;;11.50;99.90;;;;;;4950924;28;20503;-70
2024/02/13 11:22:55;;;;;;;3.87;1.40;;;11.40;99.90;;;;;;4972280;28;20480;-71
2024/02/13 11:25:28;;;;;;;3.53;1.70;;;11.20;99.90;;;;;;4955829;28;20510;-71
2024/02/13 11:27:58;;;;;;;2.70;1.57;;;11.00;99.90;;;;;;4953894;28;20441;-70
2024/02/13 11:30:24;;;;;;;4.70;1.50;;;11.10;99.90;;;;;;4956102;28;20434;-70
2024/02/13 11:32:58;;;;;;;2.00;1.20;;;11.20;99.90;;;;;;4956785;28;20448;-70
2024/02/13 11:35:29;;;;;;;1.80;1.27;;;11.20;99.90;;;;;;4956654;28;20394;-70
2024/02/13 11:37:56;;;;;;;3.33;1.27;;;11.10;99.90;;;;;;4956472;28;20560;-70
2024/02/13 11:40:22;;;;;;;2.10;1.30;;;11.20;99.90;;;;;;4956504;28;20951;-70
2024/02/13 11:42:48;;;;;;;2.17;1.10;;;11.10;99.90;;;;;;4956844;28;20496;-70
2024/02/13 11:45:22;;;;;;;2.23;1.40;;;11.00;99.90;;;;;;4954769;28;20648;-70
2024/02/13 11:47:49;;;;;;;3.50;1.37;;;11.00;99.90;;;;;;4955806;28;20910;-70
2024/02/13 11:50:17;;;;;;;3.07;1.43;;;11.10;99.90;;;;;;4950513;28;20441;-69
2024/02/13 11:52:43;;;;;;;4.97;1.33;;;11.10;99.90;;;;;;4956074;28;20469;-69
2024/02/13 11:55:09;;;;;;;2.10;1.00;;;11.10;99.90;;;;;;4955965;28;20764;-69
2024/02/13 11:57:37;;;;;;;3.37;1.33;;;11.20;99.90;;;;;;4963479;28;20983;-69
2024/02/13 12:00:12;;;;;;;3.10;1.47;;;11.40;99.90;;;;;;4961231;28;20415;-70
2024/02/13 12:02:38;;;;;;;2.03;1.10;;;11.70;99.90;;;;;;4964056;28;20448;-71
2024/02/13 12:05:10;;;;;;;2.33;1.00;;;12.00;99.90;;;;;;4970304;28;20543;-71
2024/02/13 12:07:37;;;;;;;1.07;0.87;;;12.00;99.90;;;;;;4956161;28;20796;-69
2024/02/13 12:10:06;;;;;;;2.50;1.40;;;12.70;99.20;;;;;;4955657;28;20427;-70
2024/02/13 12:12:33;;;;;;;2.33;1.00;;;13.90;97.50;;;;;;4955770;28;20415;-70
2024/02/13 12:14:59;;;;;;;1.73;1.00;;;13.70;96.10;;;;;;4955644;28;20426;-70
2024/02/13 12:17:26;;;;;;;1.67;1.20;;;13.80;95.10;;;;;;4956008;28;20925;-70
2024/02/13 12:19:52;;;;;;;1.80;1.30;;;14.00;95.10;;;;;;4953972;29;20417;-71
2024/02/13 12:22:18;;;;;;;1.87;0.80;;;13.90;95.00;;;;;;4936339;29;20438;-70
2024/02/13 12:24:46;;;;;;;1.63;0.97;;;13.50;95.50;;;;;;4967694;28;20428;-70
2024/02/13 12:27:15;;;;;;;2.50;0.80;;;13.30;94.70;;;;;;4936722;29;20431;-70
2024/02/13 12:29:42;;;;;;;1.63;0.80;;;13.60;94.40;;;;;;4954501;29;20414;-70
2024/02/13 12:32:09;;;;;;;4.50;1.30;;;13.90;93.60;;;;;;4955882;28;20413;-71
2024/02/13 12:34:36;;;;;;;3.10;1.13;;;14.30;94.40;;;;;;4955850;28;20930;-70
2024/02/13 12:37:04;;;;;;;1.70;1.13;;;14.50;93.80;;;;;;4955146;28;20440;-69
2024/02/13 12:39:31;;;;;;;1.47;0.90;;;14.50;93.30;;;;;;4954903;28;20973;-71
2024/02/13 12:41:57;;;;;;;4.00;1.30;;;14.70;93.70;;;;;;4955094;28;20401;-71
2024/02/13 12:44:23;;;;;;;1.13;0.90;;;15.40;92.00;;;;;;4956063;28;20469;-70
2024/02/13 12:46:53;;;;;;;2.07;1.20;;;15.70;91.30;;;;;;4955639;28;20186;-70
2024/02/13 12:49:22;;;;;;;2.93;1.23;;;15.30;90.70;;;;;;4954755;28;20413;-73
2024/02/13 12:51:47;;;;;;;3.53;1.00;;;16.20;88.60;;;;;;4969001;28;20531;-71
2024/02/13 12:54:14;;;;;;;2.13;1.03;;;17.10;87.00;;;;;;4936096;29;20874;-71
2024/02/13 12:56:40;;;;;;;2.40;1.13;;;18.70;80.40;;;;;;4938027;29;20617;-68